sensor_id;sensor_type;location;lat;lon;timestamp;pressure;altitude;pressure_sealevel;temperature;humidity
28626;BME280;18905;42.668;23.364;2023-05-25T00:01:57;95060.19;;;16.90;100.00
28626;BME280;18905;42.668;23.364;2023-05-25T00:04:23;95052.06;;;16.40;100.00
28626;BME280;18905;42.668;23.364;2023-05-25T00:06:51;95061.53;;;16.30;100.00
28626;BME280;18905;42.668;23.364;2023-05-25T00:09:17;95053.09;;;16.35;100.00
28626;BME280;18905;42.668;23.364;2023-05-25T00:11:43;95051.44;;;16.31;100.00
28626;BME280;18905;42.668;23.364;2023-05-25T00:14:08;95055.78;;;16.01;100.00
28626;BME280;18905;42.668;23.364;2023-05-25T00:16:34;95059.28;;;16.17;100.00
28626;BME280;18905;42.668;23.364;2023-05-25T00:19:05;95063.28;;;16.38;100.00
28626;BME280;18905;42.668;23.364;2023-05-25T00:21:31;95065.06;;;16.46;100.00
28626;BME280;18905;42.668;23.364;2023-05-25T00:24:03;95060.63;;;16.57;100.00
28626;BME280;18905;42.668;23.364;2023-05-25T00:26:28;95057.63;;;16.62;100.00
28626;BME280;18905;42.668;23.364;2023-05-25T00:28:54;95066.50;;;16.75;100.00
28626;BME280;18905;42.668;23.364;2023-05-25T00:31:20;95063.41;;;16.76;100.00
28626;BME280;18905;42.668;23.364;2023-05-25T00:33:45;95048.63;;;16.77;100.00
28626;BME280;18905;42.668;23.364;2023-05-25T00:36:11;95043.47;;;16.72;100.00
28626;BME280;18905;42.668;23.364;2023-05-25T00:38:36;95032.84;;;16.67;100.00
28626;BME280;18905;42.668;23.364;2023-05-25T00:41:02;95054.94;;;16.81;100.00
28626;BME280;18905;42.668;23.364;2023-05-25T00:43:27;95048.63;;;16.77;100.00
28626;BME280;18905;42.668;23.364;2023-05-25T00:45:53;95074.03;;;16.81;100.00
28626;BME280;18905;42.668;23.364;2023-05-25T00:48:18;95056.66;;;16.70;100.00
28626;BME280;18905;42.668;23.364;2023-05-25T00:50:44;95055.22;;;16.76;100.00
28626;BME280;18905;42.668;23.364;2023-05-25T00:53:11;95080.44;;;16.89;100.00
28626;BME280;18905;42.668;23.364;2023-05-25T00:55:40;95077.34;;;16.90;100.00
28626;BME280;18905;42.668;23.364;2023-05-25T00:58:08;95051.34;;;16.77;100.00
28626;BME280;18905;42.668;23.364;2023-05-25T01:00:36;95073.81;;;16.90;100.00
28626;BME280;18905;42.668;23.364;2023-05-25T01:03:05;95068.31;;;16.86;100.00
28626;BME280;18905;42.668;23.364;2023-05-25T01:05:37;95062.41;;;16.84;100.00
28626;BME280;18905;42.668;23.364;2023-05-25T01:08:03;95081.66;;;16.91;100.00
28626;BME280;18905;42.668;23.364;2023-05-25T01:10:31;95087.81;;;16.88;100.00
28626;BME280;18905;42.668;23.364;2023-05-25T01:12:58;95084.56;;;16.83;100.00
28626;BME280;18905;42.668;23.364;2023-05-25T01:15:26;95072.22;;;16.70;100.00
28626;BME280;18905;42.668;23.364;2023-05-25T01:17:53;95078.09;;;16.72;100.00
28626;BME280;18905;42.668;23.364;2023-05-25T01:20:25;95084.19;;;16.65;100.00
28626;BME280;18905;42.668;23.364;2023-05-25T01:25:36;95048.72;;;16.46;100.00
28626;BME280;18905;42.668;23.364;2023-05-25T01:30:31;95060.31;;;16.43;100.00
28626;BME280;18905;42.668;23.364;2023-05-25T01:32:58;95074.66;;;16.40;100.00
28626;BME280;18905;42.668;23.364;2023-05-25T01:35:24;95067.97;;;16.38;100.00
28626;BME280;18905;42.668;23.364;2023-05-25T01:37:50;95064.84;;;16.39;100.00
28626;BME280;18905;42.668;23.364;2023-05-25T01:40:16;95068.31;;;16.36;100.00
28626;BME280;18905;42.668;23.364;2023-05-25T01:42:42;95053.81;;;16.32;100.00
28626;BME280;18905;42.668;23.364;2023-05-25T01:45:12;95046.59;;;16.24;100.00
28626;BME280;18905;42.668;23.364;2023-05-25T01:50:28;95043.47;;;16.22;100.00
28626;BME280;18905;42.668;23.364;2023-05-25T01:53:03;95055.56;;;16.25;100.00
28626;BME280;18905;42.668;23.364;2023-05-25T01:55:32;95056.97;;;15.57;100.00
28626;BME280;18905;42.668;23.364;2023-05-25T01:58:01;95057.63;;;15.38;100.00
28626;BME280;18905;42.668;23.364;2023-05-25T02:00:28;95057.84;;;15.45;100.00
28626;BME280;18905;42.668;23.364;2023-05-25T02:02:58;95056.63;;;15.58;100.00
28626;BME280;18905;42.668;23.364;2023-05-25T02:05:25;95051.63;;;15.60;100.00
28626;BME280;18905;42.668;23.364;2023-05-25T02:07:52;95057.88;;;15.61;100.00
28626;BME280;18905;42.668;23.364;2023-05-25T02:10:18;95059.38;;;15.74;100.00
28626;BME280;18905;42.668;23.364;2023-05-25T02:12:43;95052.25;;;15.69;100.00
28626;BME280;18905;42.668;23.364;2023-05-25T02:15:10;95058.56;;;15.73;100.00
28626;BME280;18905;42.668;23.364;2023-05-25T02:17:35;95068.22;;;15.71;100.00
28626;BME280;18905;42.668;23.364;2023-05-25T02:20:01;95074.03;;;15.69;100.00
28626;BME280;18905;42.668;23.364;2023-05-25T02:22:28;95081.78;;;15.12;100.00
28626;BME280;18905;42.668;23.364;2023-05-25T02:24:53;95069.91;;;15.05;100.00
28626;BME280;18905;42.668;23.364;2023-05-25T02:27:18;95078.25;;;14.72;100.00
28626;BME280;18905;42.668;23.364;2023-05-25T02:29:44;95087.25;;;14.88;100.00
28626;BME280;18905;42.668;23.364;2023-05-25T02:32:09;95094.47;;;15.08;100.00
28626;BME280;18905;42.668;23.364;2023-05-25T02:34:35;95080.53;;;15.10;100.00
28626;BME280;18905;42.668;23.364;2023-05-25T02:37:00;95093.72;;;15.23;100.00
28626;BME280;18905;42.668;23.364;2023-05-25T02:39:25;95104.69;;;15.27;100.00
28626;BME280;18905;42.668;23.364;2023-05-25T02:41:52;95103.34;;;15.33;100.00
28626;BME280;18905;42.668;23.364;2023-05-25T02:44:17;95107.06;;;15.40;100.00
28626;BME280;18905;42.668;23.364;2023-05-25T02:46:43;95107.75;;;15.37;100.00
28626;BME280;18905;42.668;23.364;2023-05-25T02:49:08;95107.97;;;15.44;100.00
28626;BME280;18905;42.668;23.364;2023-05-25T02:51:34;95111.56;;;15.48;100.00
28626;BME280;18905;42.668;23.364;2023-05-25T02:54:00;95114.38;;;15.52;100.00
28626;BME280;18905;42.668;23.364;2023-05-25T02:56:25;95119.22;;;15.58;100.00
28626;BME280;18905;42.668;23.364;2023-05-25T02:58:51;95104.72;;;15.54;100.00
28626;BME280;18905;42.668;23.364;2023-05-25T03:01:17;95112.56;;;15.56;100.00
28626;BME280;18905;42.668;23.364;2023-05-25T03:03:46;95123.53;;;15.59;100.00
28626;BME280;18905;42.668;23.364;2023-05-25T03:06:16;95112.63;;;15.59;100.00
28626;BME280;18905;42.668;23.364;2023-05-25T03:08:42;95108.34;;;15.58;100.00
28626;BME280;18905;42.668;23.364;2023-05-25T03:11:07;95122.59;;;15.67;100.00
28626;BME280;18905;42.668;23.364;2023-05-25T03:13:33;95118.03;;;15.71;100.00
28626;BME280;18905;42.668;23.364;2023-05-25T03:15:58;95122.25;;;15.84;100.00
28626;BME280;18905;42.668;23.364;2023-05-25T03:18:24;95127.72;;;16.15;100.00
28626;BME280;18905;42.668;23.364;2023-05-25T03:20:50;95122.56;;;16.41;100.00
28626;BME280;18905;42.668;23.364;2023-05-25T03:23:15;95092.84;;;16.36;100.00
28626;BME280;18905;42.668;23.364;2023-05-25T03:25:41;95118.59;;;16.39;100.00
28626;BME280;18905;42.668;23.364;2023-05-25T03:28:06;95083.53;;;16.06;100.00
28626;BME280;18905;42.668;23.364;2023-05-25T03:30:31;95127.44;;;16.20;100.00
28626;BME280;18905;42.668;23.364;2023-05-25T03:32:57;95124.91;;;16.12;100.00
28626;BME280;18905;42.668;23.364;2023-05-25T03:35:22;95127.56;;;16.08;100.00
28626;BME280;18905;42.668;23.364;2023-05-25T03:37:47;95118.59;;;16.08;100.00
28626;BME280;18905;42.668;23.364;2023-05-25T03:40:13;95125.34;;;16.29;100.00
28626;BME280;18905;42.668;23.364;2023-05-25T03:42:38;95131.16;;;16.43;100.00
28626;BME280;18905;42.668;23.364;2023-05-25T03:45:04;95130.25;;;16.39;100.00
28626;BME280;18905;42.668;23.364;2023-05-25T03:47:30;95116.75;;;16.27;100.00
28626;BME280;18905;42.668;23.364;2023-05-25T03:49:55;95117.63;;;16.31;100.00
28626;BME280;18905;42.668;23.364;2023-05-25T03:52:21;95126.66;;;16.51;100.00
28626;BME280;18905;42.668;23.364;2023-05-25T03:54:47;95101.19;;;16.43;100.00
28626;BME280;18905;42.668;23.364;2023-05-25T03:57:12;95131.13;;;16.74;100.00
28626;BME280;18905;42.668;23.364;2023-05-25T03:59:38;95135.88;;;16.77;100.00
28626;BME280;18905;42.668;23.364;2023-05-25T04:02:03;95135.25;;;16.84;100.00
28626;BME280;18905;42.668;23.364;2023-05-25T04:04:29;95141.66;;;16.91;100.00
28626;BME280;18905;42.668;23.364;2023-05-25T04:06:54;95129.41;;;16.85;100.00
28626;BME280;18905;42.668;23.364;2023-05-25T04:09:20;95144.81;;;16.93;100.00
28626;BME280;18905;42.668;23.364;2023-05-25T04:11:45;95134.63;;;16.90;100.00
28626;BME280;18905;42.668;23.364;2023-05-25T04:14:11;95146.34;;;17.10;100.00
28626;BME280;18905;42.668;23.364;2023-05-25T04:16:36;95155.22;;;17.22;100.00
28626;BME280;18905;42.668;23.364;2023-05-25T04:19:02;95137.75;;;17.27;100.00
28626;BME280;18905;42.668;23.364;2023-05-25T04:21:27;95153.97;;;17.54;100.00
28626;BME280;18905;42.668;23.364;2023-05-25T04:23:53;95154.56;;;17.86;100.00
28626;BME280;18905;42.668;23.364;2023-05-25T04:26:18;95150.09;;;17.97;100.00
28626;BME280;18905;42.668;23.364;2023-05-25T04:28:44;95150.66;;;18.06;100.00
28626;BME280;18905;42.668;23.364;2023-05-25T04:31:10;95157.38;;;18.31;100.00
28626;BME280;18905;42.668;23.364;2023-05-25T04:33:37;95154.03;;;18.41;100.00
28626;BME280;18905;42.668;23.364;2023-05-25T04:36:04;95149.16;;;18.31;100.00
28626;BME280;18905;42.668;23.364;2023-05-25T04:38:29;95167.22;;;18.35;100.00
28626;BME280;18905;42.668;23.364;2023-05-25T04:40:59;95167.78;;;18.44;100.00
28626;BME280;18905;42.668;23.364;2023-05-25T04:43:28;95178.72;;;18.67;100.00
28626;BME280;18905;42.668;23.364;2023-05-25T04:45:54;95174.88;;;18.71;100.00
28626;BME280;18905;42.668;23.364;2023-05-25T04:48:20;95159.50;;;18.63;100.00
28626;BME280;18905;42.668;23.364;2023-05-25T04:50:46;95166.47;;;18.83;100.00
28626;BME280;18905;42.668;23.364;2023-05-25T04:53:11;95159.97;;;18.91;100.00
28626;BME280;18905;42.668;23.364;2023-05-25T04:55:37;95163.28;;;18.81;100.00
28626;BME280;18905;42.668;23.364;2023-05-25T04:58:02;95141.22;;;18.93;100.00
28626;BME280;18905;42.668;23.364;2023-05-25T05:00:30;95129.66;;;19.33;100.00
28626;BME280;18905;42.668;23.364;2023-05-25T05:02:56;95152.41;;;20.03;100.00
28626;BME280;18905;42.668;23.364;2023-05-25T05:05:22;95148.72;;;20.18;100.00
28626;BME280;18905;42.668;23.364;2023-05-25T05:07:47;95145.03;;;20.43;100.00
28626;BME280;18905;42.668;23.364;2023-05-25T05:10:12;95137.41;;;20.70;100.00
28626;BME280;18905;42.668;23.364;2023-05-25T05:12:38;95125.84;;;20.94;100.00
28626;BME280;18905;42.668;23.364;2023-05-25T05:15:04;95155.25;;;21.55;100.00
28626;BME280;18905;42.668;23.364;2023-05-25T05:17:29;95144.44;;;21.90;100.00
28626;BME280;18905;42.668;23.364;2023-05-25T05:19:55;95159.47;;;22.20;97.47
28626;BME280;18905;42.668;23.364;2023-05-25T05:22:20;95155.50;;;22.07;100.00
28626;BME280;18905;42.668;23.364;2023-05-25T05:24:46;95146.03;;;21.98;96.76
28626;BME280;18905;42.668;23.364;2023-05-25T05:27:12;95149.88;;;21.72;97.39
28626;BME280;18905;42.668;23.364;2023-05-25T05:29:38;95147.59;;;21.85;96.72
28626;BME280;18905;42.668;23.364;2023-05-25T05:32:04;95155.03;;;21.88;97.60
28626;BME280;18905;42.668;23.364;2023-05-25T05:34:30;95160.53;;;21.16;100.00
28626;BME280;18905;42.668;23.364;2023-05-25T05:36:55;95169.72;;;20.87;100.00
28626;BME280;18905;42.668;23.364;2023-05-25T05:39:21;95170.19;;;20.52;100.00
28626;BME280;18905;42.668;23.364;2023-05-25T05:41:46;95158.16;;;20.24;100.00
28626;BME280;18905;42.668;23.364;2023-05-25T05:44:11;95171.63;;;20.36;100.00
28626;BME280;18905;42.668;23.364;2023-05-25T05:46:37;95178.81;;;20.14;100.00
28626;BME280;18905;42.668;23.364;2023-05-25T05:49:02;95180.59;;;20.00;100.00
28626;BME280;18905;42.668;23.364;2023-05-25T05:51:28;95174.16;;;19.26;100.00
28626;BME280;18905;42.668;23.364;2023-05-25T05:53:54;95170.25;;;19.86;100.00
28626;BME280;18905;42.668;23.364;2023-05-25T05:56:19;95182.72;;;20.50;100.00
28626;BME280;18905;42.668;23.364;2023-05-25T05:58:46;95182.13;;;20.70;100.00
28626;BME280;18905;42.668;23.364;2023-05-25T06:01:16;95179.72;;;20.65;100.00
28626;BME280;18905;42.668;23.364;2023-05-25T06:03:42;95180.19;;;20.74;100.00
28626;BME280;18905;42.668;23.364;2023-05-25T06:06:08;95145.00;;;20.40;100.00
28626;BME280;18905;42.668;23.364;2023-05-25T06:08:34;95176.47;;;20.53;100.00
28626;BME280;18905;42.668;23.364;2023-05-25T06:10:59;95168.81;;;21.23;100.00
28626;BME280;18905;42.668;23.364;2023-05-25T06:13:25;95175.22;;;21.45;100.00
28626;BME280;18905;42.668;23.364;2023-05-25T06:15:50;95173.88;;;21.86;100.00
28626;BME280;18905;42.668;23.364;2023-05-25T06:18:16;95158.56;;;21.88;100.00
28626;BME280;18905;42.668;23.364;2023-05-25T06:20:41;95165.72;;;22.17;97.12
28626;BME280;18905;42.668;23.364;2023-05-25T06:23:06;95164.66;;;22.57;95.21
28626;BME280;18905;42.668;23.364;2023-05-25T06:25:35;95184.75;;;23.17;91.28
28626;BME280;18905;42.668;23.364;2023-05-25T06:28:01;95182.34;;;23.54;88.94
28626;BME280;18905;42.668;23.364;2023-05-25T06:30:27;95180.44;;;23.23;89.88
28626;BME280;18905;42.668;23.364;2023-05-25T06:32:52;95170.19;;;23.41;88.87
28626;BME280;18905;42.668;23.364;2023-05-25T06:35:17;95181.09;;;23.72;85.92
28626;BME280;18905;42.668;23.364;2023-05-25T06:37:47;95177.59;;;23.65;86.10
28626;BME280;18905;42.668;23.364;2023-05-25T06:40:13;95185.41;;;23.94;84.27
28626;BME280;18905;42.668;23.364;2023-05-25T06:42:39;95180.69;;;23.84;84.79
28626;BME280;18905;42.668;23.364;2023-05-25T06:45:06;95175.38;;;24.32;83.19
28626;BME280;18905;42.668;23.364;2023-05-25T06:47:31;95179.25;;;24.45;82.10
28626;BME280;18905;42.668;23.364;2023-05-25T06:49:56;95177.88;;;24.77;78.94
28626;BME280;18905;42.668;23.364;2023-05-25T06:52:22;95187.53;;;24.45;80.80
28626;BME280;18905;42.668;23.364;2023-05-25T06:54:48;95189.06;;;23.18;85.42
28626;BME280;18905;42.668;23.364;2023-05-25T06:57:13;95180.41;;;23.12;87.38
28626;BME280;18905;42.668;23.364;2023-05-25T06:59:38;95187.47;;;22.54;91.55
28626;BME280;18905;42.668;23.364;2023-05-25T07:02:04;95186.69;;;22.71;95.64
28626;BME280;18905;42.668;23.364;2023-05-25T07:04:29;95146.91;;;23.63;86.82
28626;BME280;18905;42.668;23.364;2023-05-25T07:06:55;95170.19;;;22.88;90.18
28626;BME280;18905;42.668;23.364;2023-05-25T07:09:20;95154.44;;;23.13;88.71
28626;BME280;18905;42.668;23.364;2023-05-25T07:11:46;95178.72;;;23.81;88.50
28626;BME280;18905;42.668;23.364;2023-05-25T07:14:11;95166.19;;;24.52;82.23
28626;BME280;18905;42.668;23.364;2023-05-25T07:16:37;95175.66;;;24.48;82.33
28626;BME280;18905;42.668;23.364;2023-05-25T07:19:02;95149.09;;;24.75;80.99
28626;BME280;18905;42.668;23.364;2023-05-25T07:21:30;95162.03;;;25.69;74.71
28626;BME280;18905;42.668;23.364;2023-05-25T07:23:59;95165.06;;;25.82;73.33
28626;BME280;18905;42.668;23.364;2023-05-25T07:26:25;95164.47;;;24.76;79.27
28626;BME280;18905;42.668;23.364;2023-05-25T07:28:52;95157.81;;;24.70;80.04
28626;BME280;18905;42.668;23.364;2023-05-25T07:31:17;95172.31;;;24.81;81.50
28626;BME280;18905;42.668;23.364;2023-05-25T07:33:43;95156.25;;;25.16;80.67
28626;BME280;18905;42.668;23.364;2023-05-25T07:36:08;95180.72;;;23.81;82.42
28626;BME280;18905;42.668;23.364;2023-05-25T07:38:34;95151.69;;;23.03;88.19
28626;BME280;18905;42.668;23.364;2023-05-25T07:41:00;95176.06;;;22.66;95.47
28626;BME280;18905;42.668;23.364;2023-05-25T07:43:25;95169.81;;;23.04;93.01
28626;BME280;18905;42.668;23.364;2023-05-25T07:45:51;95181.19;;;22.67;100.00
28626;BME280;18905;42.668;23.364;2023-05-25T07:48:17;95156.25;;;22.01;100.00
28626;BME280;18905;42.668;23.364;2023-05-25T07:50:42;95170.00;;;21.94;100.00
28626;BME280;18905;42.668;23.364;2023-05-25T07:53:07;95176.53;;;21.68;100.00
28626;BME280;18905;42.668;23.364;2023-05-25T07:55:33;95162.06;;;21.14;100.00
28626;BME280;18905;42.668;23.364;2023-05-25T07:57:58;95185.56;;;21.04;100.00
28626;BME280;18905;42.668;23.364;2023-05-25T08:00:24;95195.03;;;20.70;100.00
28626;BME280;18905;42.668;23.364;2023-05-25T08:02:49;95192.69;;;20.28;100.00
28626;BME280;18905;42.668;23.364;2023-05-25T08:05:14;95213.25;;;20.12;100.00
28626;BME280;18905;42.668;23.364;2023-05-25T08:07:40;95215.53;;;19.47;100.00
28626;BME280;18905;42.668;23.364;2023-05-25T08:10:06;95205.56;;;19.32;100.00
28626;BME280;18905;42.668;23.364;2023-05-25T08:12:31;95200.81;;;19.07;100.00
28626;BME280;18905;42.668;23.364;2023-05-25T08:14:57;95225.34;;;19.00;100.00
28626;BME280;18905;42.668;23.364;2023-05-25T08:17:23;95149.03;;;18.24;100.00
28626;BME280;18905;42.668;23.364;2023-05-25T08:19:49;95204.72;;;18.57;100.00
28626;BME280;18905;42.668;23.364;2023-05-25T08:22:15;95241.78;;;18.55;100.00
28626;BME280;18905;42.668;23.364;2023-05-25T08:24:40;95243.75;;;18.35;100.00
28626;BME280;18905;42.668;23.364;2023-05-25T08:27:06;95245.91;;;18.26;100.00
28626;BME280;18905;42.668;23.364;2023-05-25T08:29:31;95236.84;;;18.22;100.00
28626;BME280;18905;42.668;23.364;2023-05-25T08:31:56;95262.91;;;18.16;100.00
28626;BME280;18905;42.668;23.364;2023-05-25T08:34:22;95247.88;;;18.07;100.00
28626;BME280;18905;42.668;23.364;2023-05-25T08:36:47;95258.16;;;17.94;100.00
28626;BME280;18905;42.668;23.364;2023-05-25T08:39:13;95265.19;;;17.76;100.00
28626;BME280;18905;42.668;23.364;2023-05-25T08:41:43;95260.88;;;17.56;100.00
28626;BME280;18905;42.668;23.364;2023-05-25T08:44:09;95273.94;;;17.32;100.00
28626;BME280;18905;42.668;23.364;2023-05-25T08:46:35;95279.59;;;17.23;100.00
28626;BME280;18905;42.668;23.364;2023-05-25T08:49:08;95280.13;;;17.13;100.00
28626;BME280;18905;42.668;23.364;2023-05-25T08:51:38;95285.75;;;17.05;100.00
28626;BME280;18905;42.668;23.364;2023-05-25T08:54:11;95274.22;;;17.11;100.00
28626;BME280;18905;42.668;23.364;2023-05-25T08:56:54;95277.88;;;17.34;100.00
28626;BME280;18905;42.668;23.364;2023-05-25T09:04:58;95307.16;;;17.03;100.00
28626;BME280;18905;42.668;23.364;2023-05-25T09:07:26;95308.66;;;17.00;100.00
28626;BME280;18905;42.668;23.364;2023-05-25T09:09:52;95306.69;;;16.85;100.00
28626;BME280;18905;42.668;23.364;2023-05-25T09:12:19;95310.91;;;16.98;100.00
28626;BME280;18905;42.668;23.364;2023-05-25T09:14:46;95315.22;;;17.15;100.00
28626;BME280;18905;42.668;23.364;2023-05-25T09:17:16;95321.41;;;17.27;100.00
28626;BME280;18905;42.668;23.364;2023-05-25T09:19:43;95325.78;;;17.47;100.00
28626;BME280;18905;42.668;23.364;2023-05-25T09:22:08;95307.03;;;17.15;100.00
28626;BME280;18905;42.668;23.364;2023-05-25T09:24:37;95312.81;;;17.60;100.00
28626;BME280;18905;42.668;23.364;2023-05-25T09:27:05;95289.97;;;17.02;100.00
28626;BME280;18905;42.668;23.364;2023-05-25T09:29:31;95295.75;;;17.47;100.00
28626;BME280;18905;42.668;23.364;2023-05-25T09:31:57;95308.78;;;17.88;100.00
28626;BME280;18905;42.668;23.364;2023-05-25T09:34:22;95298.41;;;18.16;100.00
28626;BME280;18905;42.668;23.364;2023-05-25T09:36:48;95276.84;;;18.30;100.00
28626;BME280;18905;42.668;23.364;2023-05-25T09:39:13;95268.81;;;18.37;100.00
28626;BME280;18905;42.668;23.364;2023-05-25T09:41:41;95294.38;;;18.29;100.00
28626;BME280;18905;42.668;23.364;2023-05-25T09:44:06;95288.56;;;18.31;100.00
28626;BME280;18905;42.668;23.364;2023-05-25T09:46:33;95286.91;;;18.45;100.00
28626;BME280;18905;42.668;23.364;2023-05-25T09:49:06;95285.91;;;18.15;100.00
28626;BME280;18905;42.668;23.364;2023-05-25T09:51:33;95290.19;;;18.54;100.00
28626;BME280;18905;42.668;23.364;2023-05-25T09:53:59;95259.28;;;18.31;100.00
28626;BME280;18905;42.668;23.364;2023-05-25T09:56:26;95281.97;;;17.94;100.00
28626;BME280;18905;42.668;23.364;2023-05-25T09:58:52;95262.41;;;18.30;100.00
28626;BME280;18905;42.668;23.364;2023-05-25T10:01:18;95278.44;;;18.50;100.00
28626;BME280;18905;42.668;23.364;2023-05-25T10:03:46;95268.94;;;18.44;100.00
28626;BME280;18905;42.668;23.364;2023-05-25T10:06:13;95256.56;;;18.50;100.00
28626;BME280;18905;42.668;23.364;2023-05-25T10:08:39;95234.19;;;18.67;100.00
28626;BME280;18905;42.668;23.364;2023-05-25T10:11:06;95271.81;;;18.74;100.00
28626;BME280;18905;42.668;23.364;2023-05-25T10:13:32;95258.56;;;18.98;100.00
28626;BME280;18905;42.668;23.364;2023-05-25T10:15:58;95245.91;;;18.26;100.00
28626;BME280;18905;42.668;23.364;2023-05-25T10:18:27;95262.09;;;18.99;100.00
28626;BME280;18905;42.668;23.364;2023-05-25T10:20:59;95248.09;;;19.26;100.00
28626;BME280;18905;42.668;23.364;2023-05-25T10:23:37;95228.19;;;19.29;100.00
28626;BME280;18905;42.668;23.364;2023-05-25T10:26:06;95250.50;;;20.16;100.00
28626;BME280;18905;42.668;23.364;2023-05-25T10:28:36;95237.84;;;20.41;100.00
28626;BME280;18905;42.668;23.364;2023-05-25T10:31:02;95223.41;;;19.78;100.00
28626;BME280;18905;42.668;23.364;2023-05-25T10:33:30;95235.19;;;20.12;100.00
28626;BME280;18905;42.668;23.364;2023-05-25T10:35:56;95223.28;;;20.34;100.00
28626;BME280;18905;42.668;23.364;2023-05-25T10:38:26;95219.84;;;20.07;100.00
28626;BME280;18905;42.668;23.364;2023-05-25T10:40:57;95220.94;;;20.03;100.00
28626;BME280;18905;42.668;23.364;2023-05-25T10:43:23;95198.50;;;20.23;100.00
28626;BME280;18905;42.668;23.364;2023-05-25T10:45:50;95198.19;;;20.28;100.00
28626;BME280;18905;42.668;23.364;2023-05-25T10:48:15;95203.56;;;19.88;100.00
28626;BME280;18905;42.668;23.364;2023-05-25T10:50:41;95183.09;;;19.49;100.00
28626;BME280;18905;42.668;23.364;2023-05-25T10:53:10;95201.09;;;19.80;100.00
28626;BME280;18905;42.668;23.364;2023-05-25T10:56:01;95201.81;;;20.06;100.00
28626;BME280;18905;42.668;23.364;2023-05-25T10:58:28;95184.53;;;20.02;100.00
28626;BME280;18905;42.668;23.364;2023-05-25T11:01:02;95181.38;;;20.00;100.00
28626;BME280;18905;42.668;23.364;2023-05-25T11:06:12;95172.66;;;19.91;100.00
28626;BME280;18905;42.668;23.364;2023-05-25T11:08:59;95185.75;;;20.05;100.00
28626;BME280;18905;42.668;23.364;2023-05-25T11:14:19;95185.28;;;19.99;100.00
28626;BME280;18905;42.668;23.364;2023-05-25T11:17:17;95186.31;;;20.21;100.00
28626;BME280;18905;42.668;23.364;2023-05-25T11:19:48;95182.47;;;20.25;100.00
28626;BME280;18905;42.668;23.364;2023-05-25T11:22:31;95181.13;;;19.79;100.00
28626;BME280;18905;42.668;23.364;2023-05-25T11:24:58;95184.28;;;19.81;100.00
28626;BME280;18905;42.668;23.364;2023-05-25T11:27:26;95172.97;;;20.16;100.00
28626;BME280;18905;42.668;23.364;2023-05-25T11:29:53;95174.13;;;20.51;100.00
28626;BME280;18905;42.668;23.364;2023-05-25T11:32:20;95157.97;;;20.46;100.00
28626;BME280;18905;42.668;23.364;2023-05-25T11:34:46;95182.38;;;20.99;100.00
28626;BME280;18905;42.668;23.364;2023-05-25T11:37:16;95179.50;;;20.84;100.00
28626;BME280;18905;42.668;23.364;2023-05-25T11:39:48;95182.31;;;20.92;100.00
28626;BME280;18905;42.668;23.364;2023-05-25T11:42:16;95163.53;;;20.97;100.00
28626;BME280;18905;42.668;23.364;2023-05-25T11:44:44;95169.84;;;21.01;100.00
28626;BME280;18905;42.668;23.364;2023-05-25T11:47:10;95178.41;;;20.12;100.00
28626;BME280;18905;42.668;23.364;2023-05-25T11:49:44;95168.56;;;20.48;100.00
28626;BME280;18905;42.668;23.364;2023-05-25T11:52:14;95182.13;;;20.30;100.00
28626;BME280;18905;42.668;23.364;2023-05-25T11:54:40;95176.63;;;20.27;100.00
28626;BME280;18905;42.668;23.364;2023-05-25T11:57:16;95162.22;;;20.37;100.00
28626;BME280;18905;42.668;23.364;2023-05-25T11:59:50;95174.34;;;20.03;100.00
28626;BME280;18905;42.668;23.364;2023-05-25T12:02:16;95152.75;;;19.61;100.00
28626;BME280;18905;42.668;23.364;2023-05-25T12:04:55;95168.59;;;20.08;100.00
28626;BME280;18905;42.668;23.364;2023-05-25T12:07:21;95167.72;;;20.04;100.00
28626;BME280;18905;42.668;23.364;2023-05-25T12:09:47;95167.16;;;20.64;100.00
28626;BME280;18905;42.668;23.364;2023-05-25T12:12:13;95167.13;;;21.05;100.00
28626;BME280;18905;42.668;23.364;2023-05-25T12:14:49;95163.13;;;21.56;100.00
28626;BME280;18905;42.668;23.364;2023-05-25T12:17:16;95147.53;;;21.74;100.00
28626;BME280;18905;42.668;23.364;2023-05-25T12:19:43;95155.41;;;21.86;100.00
28626;BME280;18905;42.668;23.364;2023-05-25T12:22:10;95156.41;;;22.57;100.00
28626;BME280;18905;42.668;23.364;2023-05-25T12:24:37;95139.41;;;22.16;100.00
28626;BME280;18905;42.668;23.364;2023-05-25T12:27:02;95140.84;;;21.72;100.00
28626;BME280;18905;42.668;23.364;2023-05-25T12:29:30;95136.72;;;22.37;100.00
28626;BME280;18905;42.668;23.364;2023-05-25T12:32:02;95129.31;;;22.69;94.44
28626;BME280;18905;42.668;23.364;2023-05-25T12:34:28;95101.31;;;22.29;99.43
28626;BME280;18905;42.668;23.364;2023-05-25T12:36:55;95122.50;;;22.04;97.83
28626;BME280;18905;42.668;23.364;2023-05-25T12:41:59;95106.84;;;22.36;98.60
28626;BME280;18905;42.668;23.364;2023-05-25T12:44:28;95111.19;;;22.93;90.39
28626;BME280;18905;42.668;23.364;2023-05-25T12:47:08;95114.72;;;23.07;94.25
28626;BME280;18905;42.668;23.364;2023-05-25T12:49:38;95097.44;;;22.54;90.56
28626;BME280;18905;42.668;23.364;2023-05-25T12:52:04;95110.03;;;22.73;92.74
28626;BME280;18905;42.668;23.364;2023-05-25T12:57:02;95099.78;;;22.56;89.24
28626;BME280;18905;42.668;23.364;2023-05-25T12:59:30;95097.84;;;22.49;86.99
28626;BME280;18905;42.668;23.364;2023-05-25T13:01:56;95076.19;;;22.62;82.73
28626;BME280;18905;42.668;23.364;2023-05-25T13:04:21;95074.63;;;22.43;91.90
28626;BME280;18905;42.668;23.364;2023-05-25T13:06:47;95061.63;;;22.37;85.02